Montrose, West Virginia
Current Conditions -  °F | °C
As of 5:00 PM on Monday 26 Jan 2015 (Local Time) from KEKN Reporting Station
Light Snow Light Snow  
Wind Chill: 20°   Ceiling: 2200
Heat Index: 29°   Visibility: 5mi
Dew Point: 26°   Wind: 10mph
Humidity: 89%   Direction: 310°NW
Pressure: 29.69"   Gusts: NA
Location:  39.07°N, 79.81°W
Report Text: KEKN 262200Z AUTO 31009KT 5SM -SN BR SCT017 BKN022 OVC031 M02/M03 A2969 RMK AO2 P0000 T10171033 TSNO
Loading
Personal Weather Stations






























Interactive Weather Map New forecast layout! Learn more

10-Day Weather Forecast

Advertisements
Track Severe Weather on mobile